Time;durP1;ratioP1;P1;durP2;ratioP2;P2;SDS_P1;SDS_P2;PMS_P1;PMS_P2;Temp;Humidity;BMP_temperature;BMP_pressure;BME280_temperature;BME280_humidity;BME280_pressure;Samples;Min_cycle;Max_cycle;Signal;HPM_P1;HPM_P2
2023/09/07 00:00:25;;;;;;;9.77;4.65;;;;;;;;;;5011630;28;93966;-84
2023/09/07 00:02:52;;;;;;;11.50;4.70;;;;;;;;;;5011137;28;92505;-84
2023/09/07 00:05:18;;;;;;;8.20;4.20;;;;;;;;;;5011433;28;93698;-84
2023/09/07 00:07:45;;;;;;;8.07;3.90;;;;;;;;;;5011129;28;93074;-84
2023/09/07 00:10:12;;;;;;;8.43;3.97;;;;;;;;;;5012016;28;92850;-84
2023/09/07 00:12:39;;;;;;;7.38;4.00;;;;;;;;;;4992823;28;94212;-82
2023/09/07 00:15:06;;;;;;;9.25;4.60;;;;;;;;;;5011571;28;93189;-82
2023/09/07 00:17:33;;;;;;;;;;;;;;;;;;4992793;28;92536;-82
2023/09/07 00:19:59;;;;;;;7.70;4.30;;;;;;;;;;5013613;28;113737;-82
2023/09/07 00:22:26;;;;;;;7.85;4.30;;;;;;;;;;5009429;28;95117;-82
2023/09/07 00:24:53;;;;;;;8.50;4.30;;;;;;;;;;5011578;28;95692;-82
2023/09/07 00:27:22;;;;;;;7.95;4.40;;;;;;;;;;5010370;28;92445;-82
2023/09/07 00:29:49;;;;;;;7.97;4.50;;;;;;;;;;5011345;28;92802;-82
2023/09/07 00:32:15;;;;;;;8.52;4.15;;;;;;;;;;4993681;28;92750;-83
2023/09/07 00:34:42;;;;;;;;;;;;;;;;;;5012789;28;93208;-82
2023/09/07 00:37:09;;;;;;;13.02;4.20;;;;;;;;;;5014069;28;94379;-82
2023/09/07 00:39:36;;;;;;;8.00;4.38;;;;;;;;;;5012116;28;92870;-82
2023/09/07 00:42:02;;;;;;;7.78;4.30;;;;;;;;;;4995226;28;94558;-83
2023/09/07 00:44:29;;;;;;;8.27;4.20;;;;;;;;;;5011096;28;94011;-82
2023/09/07 00:46:59;;;;;;;8.25;4.43;;;;;;;;;;4990440;28;97800;-82
2023/09/07 00:49:25;;;;;;;8.80;4.25;;;;;;;;;;4992325;28;92455;-82
2023/09/07 00:51:52;;;;;;;8.57;4.25;;;;;;;;;;4991986;28;95458;-82
2023/09/07 00:54:19;;;;;;;9.57;4.10;;;;;;;;;;5010554;28;93178;-82
2023/09/07 00:56:47;;;;;;;7.60;4.00;;;;;;;;;;4991736;28;92564;-84
2023/09/07 00:59:14;;;;;;;8.95;4.07;;;;;;;;;;4975758;28;95508;-84
2023/09/07 01:01:41;;;;;;;8.73;4.18;;;;;;;;;;5007022;28;94161;-83
2023/09/07 01:04:09;;;;;;;9.20;4.00;;;;;;;;;;4999410;28;91776;-84
2023/09/07 01:06:37;;;;;;;8.02;4.30;;;;;;;;;;4988541;28;94767;-83
2023/09/07 01:09:10;;;;;;;8.13;3.90;;;;;;;;;;4992503;28;93060;-82
2023/09/07 01:11:37;;;;;;;7.90;3.85;;;;;;;;;;5008539;28;94825;-82
2023/09/07 01:14:04;;;;;;;7.38;3.80;;;;;;;;;;5009393;28;93115;-82
2023/09/07 01:16:33;;;;;;;7.88;3.80;;;;;;;;;;4991992;28;92438;-83
2023/09/07 01:19:01;;;;;;;7.35;3.65;;;;;;;;;;4991736;28;95515;-83
2023/09/07 01:21:34;;;;;;;8.32;4.10;;;;;;;;;;5009641;28;93585;-83
2023/09/07 01:24:04;;;;;;;6.93;3.58;;;;;;;;;;4994266;28;92431;-83
2023/09/07 01:26:31;;;;;;;8.18;3.53;;;;;;;;;;4991414;28;95020;-84
2023/09/07 01:28:58;;;;;;;6.78;3.42;;;;;;;;;;4992473;28;92435;-84
2023/09/07 01:31:24;;;;;;;8.63;3.42;;;;;;;;;;4991587;28;93367;-83
2023/09/07 01:33:51;;;;;;;7.40;3.45;;;;;;;;;;4991087;28;94249;-84
2023/09/07 01:36:18;;;;;;;6.97;3.50;;;;;;;;;;4990246;28;94891;-83
2023/09/07 01:38:44;;;;;;;7.35;3.30;;;;;;;;;;4977567;28;97778;-83
2023/09/07 01:41:11;;;;;;;6.28;3.50;;;;;;;;;;4993772;28;96282;-83
2023/09/07 01:43:39;;;;;;;8.27;3.78;;;;;;;;;;4992432;28;92489;-83
2023/09/07 01:46:05;;;;;;;8.32;3.58;;;;;;;;;;5009751;28;93108;-83
2023/09/07 01:48:32;;;;;;;7.60;3.55;;;;;;;;;;5010133;28;92474;-83
2023/09/07 01:50:59;;;;;;;7.65;3.78;;;;;;;;;;4991777;28;95797;-84
2023/09/07 01:53:26;;;;;;;9.48;3.83;;;;;;;;;;5010016;28;92231;-83
2023/09/07 01:55:55;;;;;;;9.45;4.10;;;;;;;;;;5010091;28;92909;-83
2023/09/07 01:58:23;;;;;;;10.05;3.85;;;;;;;;;;5011247;28;93895;-83
2023/09/07 02:00:52;;;;;;;9.77;4.00;;;;;;;;;;4991743;28;98151;-82
2023/09/07 02:03:18;;;;;;;7.88;3.92;;;;;;;;;;5009515;28;93010;-82
2023/09/07 02:05:45;;;;;;;7.57;3.70;;;;;;;;;;5009942;28;92842;-82
2023/09/07 02:08:12;;;;;;;8.10;4.22;;;;;;;;;;5012098;28;92912;-84
2023/09/07 02:10:39;;;;;;;8.35;4.22;;;;;;;;;;5009502;28;92469;-83
2023/09/07 02:13:05;;;;;;;8.60;4.10;;;;;;;;;;4991405;28;95789;-83
2023/09/07 02:15:33;;;;;;;7.78;4.20;;;;;;;;;;4995195;28;92521;-83
2023/09/07 02:18:00;;;;;;;7.22;3.88;;;;;;;;;;4995754;28;95786;-84
2023/09/07 02:20:26;;;;;;;10.23;4.25;;;;;;;;;;5011566;28;95090;-82
2023/09/07 02:22:53;;;;;;;8.85;3.90;;;;;;;;;;5012726;28;92424;-82
2023/09/07 02:25:20;;;;;;;10.93;4.13;;;;;;;;;;4993082;28;95117;-83
2023/09/07 02:27:47;;;;;;;7.47;4.10;;;;;;;;;;5013005;28;92819;-82
2023/09/07 02:30:14;;;;;;;8.80;4.00;;;;;;;;;;5016649;28;92764;-82
2023/09/07 02:32:42;;;;;;;8.25;4.50;;;;;;;;;;4995013;28;94752;-83
2023/09/07 02:35:09;;;;;;;7.65;4.25;;;;;;;;;;4995158;28;92506;-83
2023/09/07 02:37:37;;;;;;;8.20;3.90;;;;;;;;;;4993672;28;92743;-84
2023/09/07 02:40:08;;;;;;;9.82;4.20;;;;;;;;;;4994832;28;96005;-83
2023/09/07 02:42:35;;;;;;;8.45;3.95;;;;;;;;;;4995734;28;92445;-83
2023/09/07 02:45:02;;;;;;;9.30;4.03;;;;;;;;;;4994446;28;94542;-83
2023/09/07 02:47:29;;;;;;;8.57;3.85;;;;;;;;;;5012689;28;94749;-83
2023/09/07 02:49:56;;;;;;;7.55;3.85;;;;;;;;;;4994268;28;95474;-83
2023/09/07 02:52:22;;;;;;;8.63;3.90;;;;;;;;;;4999011;28;95793;-83
2023/09/07 02:54:50;;;;;;;7.93;3.67;;;;;;;;;;4997171;28;92542;-83
2023/09/07 02:57:16;;;;;;;9.52;3.88;;;;;;;;;;4996172;28;95907;-83
2023/09/07 02:59:43;;;;;;;8.25;3.97;;;;;;;;;;4975246;28;94105;-83
2023/09/07 03:02:10;;;;;;;7.82;3.92;;;;;;;;;;5004662;28;92457;-84
2023/09/07 03:04:37;;;;;;;8.07;3.72;;;;;;;;;;5012992;28;93702;-82
2023/09/07 03:07:03;;;;;;;7.80;4.05;;;;;;;;;;4994184;28;95479;-82
2023/09/07 03:09:30;;;;;;;8.50;4.05;;;;;;;;;;4992542;28;92640;-82
2023/09/07 03:12:00;;;;;;;8.25;4.00;;;;;;;;;;4998395;28;95250;-81
2023/09/07 03:14:28;;;;;;;7.38;3.67;;;;;;;;;;5007355;28;95452;-82
2023/09/07 03:16:55;;;;;;;7.82;3.78;;;;;;;;;;5012116;28;95542;-82
2023/09/07 03:19:21;;;;;;;;;;;;;;;;;;4977619;28;93648;-83
2023/09/07 03:21:48;;;;;;;7.95;3.88;;;;;;;;;;5013041;28;103586;-82
2023/09/07 03:24:15;;;;;;;8.18;4.10;;;;;;;;;;4994231;28;94335;-82
2023/09/07 03:26:43;;;;;;;8.82;4.53;;;;;;;;;;4993628;28;95419;-82
2023/09/07 03:29:10;;;;;;;8.75;3.50;;;;;;;;;;4995503;28;92890;-82
2023/09/07 03:31:37;;;;;;;6.85;3.60;;;;;;;;;;4995601;28;94213;-82
2023/09/07 03:34:05;;;;;;;6.47;3.42;;;;;;;;;;5016404;28;93122;-82
2023/09/07 03:36:32;;;;;;;7.78;4.20;;;;;;;;;;5013215;28;93259;-82
2023/09/07 03:38:59;;;;;;;7.50;3.58;;;;;;;;;;4991633;28;97812;-82
2023/09/07 03:41:30;;;;;;;7.93;3.72;;;;;;;;;;4993674;28;92503;-81
2023/09/07 03:43:57;;;;;;;10.35;4.05;;;;;;;;;;4992856;28;94960;-82
2023/09/07 03:46:24;;;;;;;9.27;4.22;;;;;;;;;;5011046;28;92813;-81
2023/09/07 03:48:51;;;;;;;;;;;;;;;;;;4993896;28;92487;-81
2023/09/07 03:51:18;;;;;;;6.35;3.35;;;;;;;;;;5013667;28;105288;-83
2023/09/07 03:53:45;;;;;;;7.93;3.97;;;;;;;;;;5011640;28;94090;-82
2023/09/07 03:56:12;;;;;;;8.45;4.45;;;;;;;;;;4996929;28;91771;-82
2023/09/07 03:58:39;;;;;;;7.10;3.95;;;;;;;;;;4992874;28;95523;-82
2023/09/07 04:01:05;;;;;;;8.75;4.90;;;;;;;;;;4995539;28;92641;-82
2023/09/07 04:03:32;;;;;;;7.60;4.45;;;;;;;;;;4991805;28;95558;-83
2023/09/07 04:05:59;;;;;;;8.10;4.35;;;;;;;;;;5010867;28;93588;-84
2023/09/07 04:08:27;;;;;;;7.75;3.97;;;;;;;;;;4998866;28;92640;-83
2023/09/07 04:10:53;;;;;;;7.72;3.97;;;;;;;;;;5011381;28;92929;-84
2023/09/07 04:13:20;;;;;;;7.63;4.00;;;;;;;;;;4992983;28;94671;-84
2023/09/07 04:15:49;;;;;;;7.75;4.10;;;;;;;;;;4993447;28;92512;-83
2023/09/07 04:18:16;;;;;;;7.10;4.00;;;;;;;;;;4996274;28;95259;-84
2023/09/07 04:20:44;;;;;;;7.40;3.75;;;;;;;;;;4996539;28;92186;-84
2023/09/07 04:23:12;;;;;;;6.85;3.92;;;;;;;;;;4997846;28;95008;-84
2023/09/07 04:25:39;;;;;;;9.05;4.32;;;;;;;;;;4997479;28;95998;-83
2023/09/07 04:28:06;;;;;;;7.20;3.75;;;;;;;;;;4995203;28;95238;-82
2023/09/07 04:30:33;;;;;;;10.07;4.20;;;;;;;;;;4993669;28;98432;-82
2023/09/07 04:32:59;;;;;;;;;;;;;;;;;;5012461;28;92373;-82
2023/09/07 04:35:28;;;;;;;8.50;4.20;;;;;;;;;;4994641;28;92503;-82
2023/09/07 04:37:55;;;;;;;9.20;4.00;;;;;;;;;;4992483;28;95638;-82
2023/09/07 04:40:22;;;;;;;9.30;4.10;;;;;;;;;;5013941;28;92614;-82
2023/09/07 04:42:48;;;;;;;6.78;3.78;;;;;;;;;;4992456;28;95785;-82
2023/09/07 04:45:15;;;;;;;8.57;4.10;;;;;;;;;;4992111;28;93223;-82
2023/09/07 04:47:42;;;;;;;7.32;3.90;;;;;;;;;;4991860;28;92822;-82
2023/09/07 04:50:09;;;;;;;9.23;4.28;;;;;;;;;;4992131;28;95449;-82
2023/09/07 04:52:36;;;;;;;7.07;3.95;;;;;;;;;;4990720;28;95587;-82
2023/09/07 04:55:03;;;;;;;7.97;3.88;;;;;;;;;;4993682;28;92646;-82
2023/09/07 04:57:31;;;;;;;8.05;3.78;;;;;;;;;;4995453;28;95777;-81
2023/09/07 04:59:57;;;;;;;7.18;3.92;;;;;;;;;;5011188;28;93059;-83
2023/09/07 05:02:25;;;;;;;8.35;4.15;;;;;;;;;;5014964;28;92809;-83
2023/09/07 05:04:52;;;;;;;9.70;4.20;;;;;;;;;;5011522;28;94078;-83
2023/09/07 05:07:18;;;;;;;8.57;4.50;;;;;;;;;;4993369;28;92546;-83
2023/09/07 05:09:45;;;;;;;8.45;4.10;;;;;;;;;;4994543;28;96021;-83
2023/09/07 05:12:14;;;;;;;8.25;3.97;;;;;;;;;;5015527;28;92988;-81
2023/09/07 05:14:40;;;;;;;8.40;4.32;;;;;;;;;;4997727;28;92848;-81
2023/09/07 05:17:07;;;;;;;7.35;3.90;;;;;;;;;;4992836;28;95099;-82
2023/09/07 05:19:34;;;;;;;8.38;4.18;;;;;;;;;;4997661;28;94264;-82
2023/09/07 05:22:03;;;;;;;7.65;3.92;;;;;;;;;;5010350;28;92406;-82
2023/09/07 05:24:31;;;;;;;7.88;3.78;;;;;;;;;;5013990;28;95046;-81
2023/09/07 05:26:58;;;;;;;7.75;3.72;;;;;;;;;;4993686;28;92298;-81
2023/09/07 05:29:25;;;;;;;8.20;4.05;;;;;;;;;;5008324;28;94521;-81
2023/09/07 05:31:52;;;;;;;7.88;3.88;;;;;;;;;;5015734;28;92983;-80
2023/09/07 05:34:19;;;;;;;8.88;3.72;;;;;;;;;;5016220;28;91562;-80
2023/09/07 05:36:48;;;;;;;7.00;3.50;;;;;;;;;;5033412;27;91746;-80
2023/09/07 05:39:14;;;;;;;7.55;3.90;;;;;;;;;;5014345;28;93164;-81
2023/09/07 05:41:41;;;;;;;8.82;4.07;;;;;;;;;;5031350;28;95305;-81
2023/09/07 05:44:08;;;;;;;7.70;3.83;;;;;;;;;;5026534;28;94540;-79
2023/09/07 05:46:34;;;;;;;8.23;4.00;;;;;;;;;;5006546;28;92828;-80
2023/09/07 05:49:01;;;;;;;7.70;4.00;;;;;;;;;;4978293;28;95628;-81
2023/09/07 05:51:28;;;;;;;8.68;4.43;;;;;;;;;;4984385;28;94294;-81
2023/09/07 05:53:55;;;;;;;8.90;4.35;;;;;;;;;;5007199;28;92451;-84
2023/09/07 05:56:22;;;;;;;9.02;4.60;;;;;;;;;;4992924;28;94977;-83
2023/09/07 05:58:48;;;;;;;8.77;4.40;;;;;;;;;;5010653;28;93250;-83
2023/09/07 06:01:15;;;;;;;10.85;4.13;;;;;;;;;;4992127;28;93880;-83
2023/09/07 06:03:42;;;;;;;;;;;;;;;;;;4985135;28;94906;-83
2023/09/07 06:06:09;;;;;;;12.07;4.25;;;;;;;;;;4980977;28;97643;-82
2023/09/07 06:08:36;;;;;;;7.88;3.83;;;;;;;;;;4990397;28;96734;-82
2023/09/07 06:11:03;;;;;;;7.70;3.63;;;;;;;;;;5008943;28;93484;-82
2023/09/07 06:13:29;;;;;;;8.18;3.55;;;;;;;;;;5009338;28;92468;-82
2023/09/07 06:15:56;;;;;;;7.82;3.50;;;;;;;;;;4981148;28;95443;-82
2023/09/07 06:18:23;;;;;;;8.60;3.70;;;;;;;;;;4986843;28;94202;-82
2023/09/07 06:20:49;;;;;;;7.07;3.70;;;;;;;;;;4999001;28;92793;-81
2023/09/07 06:23:16;;;;;;;8.65;3.60;;;;;;;;;;4994109;28;95361;-81
2023/09/07 06:25:43;;;;;;;9.40;3.65;;;;;;;;;;4982328;28;94532;-80
2023/09/07 06:28:09;;;;;;;10.20;3.33;;;;;;;;;;5014075;28;93249;-80
2023/09/07 06:30:36;;;;;;;8.18;3.22;;;;;;;;;;5004663;28;96587;-80
2023/09/07 06:33:04;;;;;;;6.25;3.42;;;;;;;;;;4992524;28;93037;-80
2023/09/07 06:35:31;;;;;;;6.78;3.30;;;;;;;;;;4999248;28;92919;-81
2023/09/07 06:37:58;;;;;;;6.63;3.22;;;;;;;;;;5014356;28;92464;-80
2023/09/07 06:40:26;;;;;;;7.63;3.38;;;;;;;;;;4983503;28;93062;-81
2023/09/07 06:42:57;;;;;;;8.40;3.42;;;;;;;;;;5000470;28;92671;-80
2023/09/07 06:45:25;;;;;;;6.20;3.20;;;;;;;;;;4993894;28;92499;-81
2023/09/07 06:47:52;;;;;;;7.47;3.65;;;;;;;;;;4999123;28;91889;-82
2023/09/07 06:50:21;;;;;;;8.25;3.63;;;;;;;;;;4999868;28;94044;-81
2023/09/07 06:52:48;;;;;;;9.52;3.58;;;;;;;;;;4995073;28;92977;-81
2023/09/07 06:55:15;;;;;;;7.18;3.55;;;;;;;;;;4993262;28;94746;-81
2023/09/07 06:57:44;;;;;;;7.53;3.35;;;;;;;;;;4994845;28;94593;-80
2023/09/07 07:00:11;;;;;;;9.60;3.72;;;;;;;;;;4996448;28;92908;-80
2023/09/07 07:02:38;;;;;;;8.15;3.60;;;;;;;;;;4999677;28;96002;-80
2023/09/07 07:05:08;;;;;;;8.73;3.78;;;;;;;;;;4999403;28;94494;-81
2023/09/07 07:07:35;;;;;;;7.90;3.70;;;;;;;;;;5000645;28;92604;-81
2023/09/07 07:10:03;;;;;;;10.43;3.60;;;;;;;;;;5000223;28;94714;-81
2023/09/07 07:12:34;;;;;;;8.30;3.53;;;;;;;;;;5003461;28;95287;-81
2023/09/07 07:15:02;;;;;;;8.85;3.63;;;;;;;;;;5002985;28;94915;-81
2023/09/07 07:17:29;;;;;;;;;;;;;;;;;;5000736;28;96211;-81
2023/09/07 07:19:56;;;;;;;9.05;4.15;;;;;;;;;;5016813;28;94835;-81
2023/09/07 07:22:23;;;;;;;9.40;3.63;;;;;;;;;;4994925;28;96524;-85
2023/09/07 07:24:50;;;;;;;8.13;3.72;;;;;;;;;;4998319;28;94819;-82
2023/09/07 07:27:19;;;;;;;9.18;3.55;;;;;;;;;;4997832;28;92430;-84
2023/09/07 07:29:46;;;;;;;6.75;3.17;;;;;;;;;;5013179;28;93874;-83
2023/09/07 07:32:13;;;;;;;8.00;3.55;;;;;;;;;;4992003;28;95024;-83
2023/09/07 07:34:40;;;;;;;;;;;;;;;;;;4976452;28;94979;-83
2023/09/07 07:37:07;;;;;;;6.78;3.25;;;;;;;;;;4996095;28;94986;-82
2023/09/07 07:39:33;;;;;;;6.53;3.10;;;;;;;;;;5011836;28;92564;-81
2023/09/07 07:42:03;;;;;;;7.68;3.40;;;;;;;;;;5011903;28;92815;-82
2023/09/07 07:44:30;;;;;;;5.70;3.08;;;;;;;;;;4991480;28;97817;-82
2023/09/07 07:46:57;;;;;;;7.88;3.28;;;;;;;;;;4993747;28;92478;-82
2023/09/07 07:49:24;;;;;;;5.57;2.85;;;;;;;;;;4976875;28;95781;-82
2023/09/07 07:51:51;;;;;;;5.90;2.90;;;;;;;;;;4976476;28;95773;-82
2023/09/07 07:54:18;;;;;;;;;;;;;;;;;;4996641;28;92986;-83
2023/09/07 07:56:44;;;;;;;6.78;3.10;;;;;;;;;;4995005;28;96529;-82
2023/09/07 07:59:11;;;;;;;6.18;3.20;;;;;;;;;;5012040;28;92517;-82
2023/09/07 08:01:37;;;;;;;6.50;2.97;;;;;;;;;;4993923;28;93837;-82
2023/09/07 08:04:04;;;;;;;5.43;2.83;;;;;;;;;;4994626;28;96132;-83
2023/09/07 08:06:32;;;;;;;7.07;3.03;;;;;;;;;;4998253;28;92516;-83
2023/09/07 08:08:59;;;;;;;6.28;2.90;;;;;;;;;;4984287;28;95439;-83
2023/09/07 08:11:27;;;;;;;7.00;3.10;;;;;;;;;;4987416;28;95391;-83
2023/09/07 08:13:53;;;;;;;11.30;3.20;;;;;;;;;;4982185;28;92502;-84
2023/09/07 08:16:20;;;;;;;7.25;3.10;;;;;;;;;;5016492;28;93866;-84
2023/09/07 08:18:48;;;;;;;7.30;3.20;;;;;;;;;;4983264;28;92544;-84
2023/09/07 08:21:16;;;;;;;5.78;2.97;;;;;;;;;;4994506;28;95138;-84
2023/09/07 08:23:42;;;;;;;6.35;2.90;;;;;;;;;;4999337;28;94657;-85
2023/09/07 08:26:09;;;;;;;6.10;2.90;;;;;;;;;;5001647;28;92013;-83
2023/09/07 08:28:38;;;;;;;5.53;2.70;;;;;;;;;;4993082;28;95661;-84
2023/09/07 08:31:04;;;;;;;6.93;2.70;;;;;;;;;;5019747;28;93581;-84
2023/09/07 08:33:33;;;;;;;;;;;;;;;;;;5005843;28;94799;-84
2023/09/07 08:36:01;;;;;;;6.18;2.60;;;;;;;;;;5027189;28;94171;-84
2023/09/07 08:38:28;;;;;;;5.32;2.83;;;;;;;;;;4987767;28;93783;-84
2023/09/07 08:40:59;;;;;;;6.63;2.65;;;;;;;;;;5001180;28;92663;-83
2023/09/07 08:43:28;;;;;;;5.65;2.70;;;;;;;;;;5017408;28;93243;-84
2023/09/07 08:45:59;;;;;;;5.80;2.83;;;;;;;;;;4997334;28;94411;-84
2023/09/07 08:48:27;;;;;;;6.97;2.65;;;;;;;;;;5015420;28;92575;-84
2023/09/07 08:50:55;;;;;;;6.88;2.90;;;;;;;;;;4997623;28;92291;-84
2023/09/07 08:53:22;;;;;;;6.25;2.63;;;;;;;;;;5016312;28;92856;-84
2023/09/07 08:55:49;;;;;;;5.55;2.63;;;;;;;;;;4998211;28;93356;-84
2023/09/07 08:58:15;;;;;;;5.18;2.58;;;;;;;;;;5014476;28;95630;-84
2023/09/07 09:00:43;;;;;;;5.47;2.60;;;;;;;;;;5019892;28;92344;-84
2023/09/07 09:03:10;;;;;;;5.88;2.63;;;;;;;;;;5016452;28;92541;-84
2023/09/07 09:05:41;;;;;;;5.53;2.40;;;;;;;;;;5016823;28;92396;-85
2023/09/07 09:08:07;;;;;;;5.20;2.60;;;;;;;;;;4982885;28;95862;-84
2023/09/07 09:10:40;;;;;;;5.50;2.60;;;;;;;;;;5000822;28;93050;-84
2023/09/07 09:13:07;;;;;;;5.28;2.60;;;;;;;;;;5016971;28;92437;-83
2023/09/07 09:15:34;;;;;;;4.97;2.65;;;;;;;;;;5012971;28;91632;-83
2023/09/07 09:18:08;;;;;;;7.63;2.47;;;;;;;;;;5012506;28;93545;-83
2023/09/07 09:20:37;;;;;;;5.60;2.63;;;;;;;;;;4987261;28;93413;-83
2023/09/07 09:23:04;;;;;;;6.53;2.75;;;;;;;;;;5001396;28;95425;-81
2023/09/07 09:25:31;;;;;;;6.43;2.80;;;;;;;;;;4993221;28;92448;-81
2023/09/07 09:27:57;;;;;;;7.75;2.70;;;;;;;;;;4992818;28;92890;-83
2023/09/07 09:30:24;;;;;;;5.93;2.50;;;;;;;;;;4987512;28;96040;-83
2023/09/07 09:32:51;;;;;;;5.95;2.53;;;;;;;;;;5016701;28;92485;-81
2023/09/07 09:35:19;;;;;;;6.10;2.50;;;;;;;;;;5014314;28;92910;-83
2023/09/07 09:37:46;;;;;;;6.03;2.33;;;;;;;;;;5012979;28;94021;-82
2023/09/07 09:40:13;;;;;;;5.75;2.30;;;;;;;;;;5012781;28;91617;-82
2023/09/07 09:42:41;;;;;;;5.68;2.53;;;;;;;;;;5012475;28;92396;-82
2023/09/07 09:45:08;;;;;;;6.90;2.83;;;;;;;;;;5008354;28;93271;-83
2023/09/07 09:47:42;;;;;;;5.38;2.45;;;;;;;;;;5009302;28;94834;-83
2023/09/07 09:50:10;;;;;;;6.93;2.65;;;;;;;;;;4978477;28;95533;-81
2023/09/07 09:52:38;;;;;;;5.93;2.45;;;;;;;;;;5006262;28;94425;-86
2023/09/07 09:55:07;;;;;;;5.40;2.40;;;;;;;;;;5010301;28;92437;-82
2023/09/07 09:57:37;;;;;;;4.82;2.40;;;;;;;;;;5012101;28;92928;-82
2023/09/07 10:00:38;;;;;;;4.97;2.50;;;;;;;;;;5001442;28;92639;-82
2023/09/07 10:03:00;;;;;;;6.60;2.45;;;;;;;;;;4999822;28;98831;-82
2023/09/07 10:05:27;;;;;;;6.75;2.65;;;;;;;;;;4998806;28;99543;-83
2023/09/07 10:08:00;;;;;;;5.90;2.47;;;;;;;;;;5000470;28;98469;-82
2023/09/07 10:10:31;;;;;;;5.82;2.60;;;;;;;;;;4999376;28;99355;-82
2023/09/07 10:12:58;;;;;;;5.85;2.60;;;;;;;;;;5003372;28;99538;-82
2023/09/07 10:15:25;;;;;;;7.55;2.67;;;;;;;;;;4984551;28;99611;-82
2023/09/07 10:18:08;;;;;;;6.60;2.60;;;;;;;;;;4995950;28;99034;-81
2023/09/07 10:20:47;;;;;;;7.05;2.92;;;;;;;;;;4977703;28;98862;-83
2023/09/07 10:23:14;;;;;;;8.32;2.80;;;;;;;;;;4987900;28;99195;-82
2023/09/07 10:25:41;;;;;;;6.63;2.67;;;;;;;;;;5001218;28;99196;-82
2023/09/07 10:28:17;;;;;;;6.68;2.70;;;;;;;;;;4998451;28;101080;-84
2023/09/07 10:30:44;;;;;;;6.53;2.45;;;;;;;;;;5005821;28;98495;-84
2023/09/07 10:33:11;;;;;;;;;;;;;;;;;;5004192;28;98808;-83
2023/09/07 10:35:38;;;;;;;5.60;2.40;;;;;;;;;;4982157;28;99795;-82
2023/09/07 10:38:05;;;;;;;;;;;;;;;;;;4989868;28;104527;-82
2023/09/07 10:40:32;;;;;;;5.43;2.60;;;;;;;;;;5011851;28;98486;-81
2023/09/07 10:43:03;;;;;;;7.22;2.75;;;;;;;;;;4990292;28;101813;-81
2023/09/07 10:45:30;;;;;;;5.43;2.50;;;;;;;;;;5007817;28;100204;-82
2023/09/07 10:47:57;;;;;;;5.70;2.42;;;;;;;;;;5013364;28;99096;-82
2023/09/07 10:50:23;;;;;;;4.93;2.60;;;;;;;;;;4995669;28;100250;-82
2023/09/07 10:52:50;;;;;;;4.88;2.47;;;;;;;;;;4974866;28;98505;-82
2023/09/07 10:55:16;;;;;;;5.43;2.65;;;;;;;;;;5004837;28;99162;-82
2023/09/07 10:57:44;;;;;;;5.18;2.58;;;;;;;;;;4991214;28;100148;-82
2023/09/07 11:00:11;;;;;;;5.32;2.50;;;;;;;;;;5013172;28;98661;-84
2023/09/07 11:02:38;;;;;;;4.80;2.20;;;;;;;;;;4996059;28;99884;-84
2023/09/07 11:05:05;;;;;;;5.25;2.38;;;;;;;;;;5015226;28;99071;-84
2023/09/07 11:07:32;;;;;;;4.88;2.42;;;;;;;;;;4998231;28;98570;-83
2023/09/07 11:09:59;;;;;;;5.43;2.70;;;;;;;;;;5013189;28;99861;-82
2023/09/07 11:12:26;;;;;;;4.45;2.20;;;;;;;;;;5017606;28;99707;-83
2023/09/07 11:14:53;;;;;;;4.90;2.20;;;;;;;;;;4990963;28;98908;-81
2023/09/07 11:17:25;;;;;;;5.32;2.50;;;;;;;;;;5008466;28;99507;-81
2023/09/07 11:19:52;;;;;;;4.97;2.40;;;;;;;;;;4991040;28;97804;-81
2023/09/07 11:22:19;;;;;;;4.90;2.30;;;;;;;;;;5003259;28;98679;-81
2023/09/07 11:24:46;;;;;;;6.60;2.50;;;;;;;;;;5010103;28;98766;-82
2023/09/07 11:27:12;;;;;;;;;;;;;;;;;;5006703;28;99436;-82
2023/09/07 11:29:39;;;;;;;5.88;2.65;;;;;;;;;;4992458;28;99608;-82
2023/09/07 11:32:05;;;;;;;;;;;;;;;;;;4992455;28;99173;-82
2023/09/07 11:34:32;;;;;;;5.63;2.40;;;;;;;;;;4996796;28;98653;-82
2023/09/07 11:36:58;;;;;;;5.80;2.47;;;;;;;;;;5010570;28;99207;-82
2023/09/07 11:39:25;;;;;;;5.57;2.42;;;;;;;;;;4986930;28;99143;-82
2023/09/07 11:41:52;;;;;;;4.22;2.40;;;;;;;;;;5000691;28;99584;-83
2023/09/07 11:44:18;;;;;;;5.65;2.60;;;;;;;;;;4996597;28;98506;-80
2023/09/07 11:46:45;;;;;;;5.40;2.70;;;;;;;;;;5000411;28;98524;-82
2023/09/07 11:49:11;;;;;;;6.85;3.22;;;;;;;;;;4992007;28;102105;-82
2023/09/07 11:51:38;;;;;;;5.07;2.40;;;;;;;;;;4985701;28;102314;-82
2023/09/07 11:54:04;;;;;;;5.95;2.60;;;;;;;;;;5003907;28;98571;-82
2023/09/07 11:56:31;;;;;;;4.90;2.53;;;;;;;;;;4973792;28;100755;-82
2023/09/07 11:58:58;;;;;;;5.63;2.70;;;;;;;;;;4989974;28;98577;-82
2023/09/07 12:01:27;;;;;;;4.38;2.50;;;;;;;;;;4990245;28;100155;-82
2023/09/07 12:03:53;;;;;;;6.60;2.90;;;;;;;;;;5012880;28;99134;-84
2023/09/07 12:06:20;;;;;;;5.47;2.60;;;;;;;;;;5004093;28;98634;-85
2023/09/07 12:09:00;;;;;;;5.28;2.63;;;;;;;;;;4993806;28;101134;-84
2023/09/07 12:11:27;;;;;;;8.18;3.08;;;;;;;;;;4998001;28;99366;-82
2023/09/07 12:13:54;;;;;;;;;;;;;;;;;;5009583;28;98859;-82
2023/09/07 12:16:20;;;;;;;8.25;3.30;;;;;;;;;;4996315;28;114811;-83
2023/09/07 12:18:47;;;;;;;7.18;3.05;;;;;;;;;;5011098;28;98649;-83
2023/09/07 12:21:14;;;;;;;6.10;2.80;;;;;;;;;;5009626;28;98526;-83
2023/09/07 12:23:41;;;;;;;7.07;3.13;;;;;;;;;;5012154;28;99072;-82
2023/09/07 12:26:08;;;;;;;6.97;3.15;;;;;;;;;;5013266;28;98682;-81
2023/09/07 12:28:36;;;;;;;7.07;3.00;;;;;;;;;;5008460;28;99879;-84
2023/09/07 12:31:02;;;;;;;6.10;3.00;;;;;;;;;;5009024;28;99436;-82
2023/09/07 12:33:30;;;;;;;7.30;2.80;;;;;;;;;;5005515;28;97758;-82
2023/09/07 12:35:57;;;;;;;7.10;2.80;;;;;;;;;;5009665;28;100274;-82
2023/09/07 12:38:28;;;;;;;7.30;2.90;;;;;;;;;;5002652;28;101196;-83
2023/09/07 12:40:55;;;;;;;6.97;2.90;;;;;;;;;;4991506;28;99197;-82
2023/09/07 12:43:24;;;;;;;6.80;2.90;;;;;;;;;;4997362;28;99356;-82
2023/09/07 12:45:52;;;;;;;5.25;2.75;;;;;;;;;;4988881;28;98578;-81
2023/09/07 12:48:19;;;;;;;5.97;2.92;;;;;;;;;;4974844;28;99679;-83
2023/09/07 12:50:46;;;;;;;5.45;2.67;;;;;;;;;;4975418;28;100393;-83
2023/09/07 12:53:13;;;;;;;;;;;;;;;;;;5013802;28;98892;-82
2023/09/07 12:55:39;;;;;;;6.45;2.90;;;;;;;;;;5005670;28;119349;-82
2023/09/07 12:58:06;;;;;;;7.55;3.00;;;;;;;;;;5015361;28;98576;-83
2023/09/07 13:00:32;;;;;;;6.70;3.22;;;;;;;;;;5022448;28;98492;-83
2023/09/07 13:02:59;;;;;;;5.75;2.85;;;;;;;;;;4998343;28;98945;-83
2023/09/07 13:05:26;;;;;;;5.32;2.88;;;;;;;;;;4987299;28;99309;-82
2023/09/07 13:07:54;;;;;;;7.65;2.80;;;;;;;;;;4994531;28;102479;-82
2023/09/07 13:10:21;;;;;;;6.15;2.90;;;;;;;;;;5010517;28;100133;-82
2023/09/07 13:12:48;;;;;;;5.70;2.83;;;;;;;;;;5017368;28;98559;-83
2023/09/07 13:15:15;;;;;;;5.32;2.72;;;;;;;;;;5011666;28;98886;-81
2023/09/07 13:17:41;;;;;;;5.93;2.70;;;;;;;;;;5010811;28;99581;-83
2023/09/07 13:20:08;;;;;;;9.57;3.30;;;;;;;;;;5012678;28;98604;-82
2023/09/07 13:22:35;;;;;;;5.88;2.90;;;;;;;;;;5017687;28;99089;-86
2023/09/07 13:25:01;;;;;;;5.78;2.83;;;;;;;;;;5013825;28;98621;-83
2023/09/07 13:27:28;;;;;;;;;;;;;;;;;;4988611;28;98913;-82
2023/09/07 13:29:55;;;;;;;5.93;2.60;;;;;;;;;;4992993;28;110257;-83
2023/09/07 13:32:21;;;;;;;5.50;2.78;;;;;;;;;;5019788;28;98752;-82
2023/09/07 13:34:48;;;;;;;5.72;2.92;;;;;;;;;;5010280;28;98528;-83
2023/09/07 13:37:15;;;;;;;5.00;2.90;;;;;;;;;;4991201;28;99342;-87
2023/09/07 13:39:55;;;;;;;6.00;3.00;;;;;;;;;;4973709;28;98525;-83
2023/09/07 13:42:22;;;;;;;5.95;3.25;;;;;;;;;;5005810;28;99083;-83
2023/09/07 13:44:49;;;;;;;6.18;3.10;;;;;;;;;;5018082;28;98463;-83
2023/09/07 13:47:16;;;;;;;6.07;3.20;;;;;;;;;;5018623;28;97764;-83
2023/09/07 13:49:43;;;;;;;6.05;3.25;;;;;;;;;;5006528;28;99307;-83
2023/09/07 13:52:09;;;;;;;6.68;3.03;;;;;;;;;;5017549;28;98619;-82
2023/09/07 13:54:36;;;;;;;;;;;;;;;;;;5017584;28;99226;-83
2023/09/07 13:57:02;;;;;;;7.45;3.30;;;;;;;;;;5002362;28;112154;-80
2023/09/07 13:59:32;;;;;;;8.25;3.03;;;;;;;;;;5000811;28;98609;-79
2023/09/07 14:01:59;;;;;;;5.88;2.95;;;;;;;;;;5003004;28;99344;-78
2023/09/07 14:04:26;;;;;;;12.63;3.20;;;;;;;;;;4995938;28;98529;-78
2023/09/07 14:06:52;;;;;;;6.18;2.83;;;;;;;;;;4990421;28;98942;-78
2023/09/07 14:09:19;;;;;;;6.03;2.90;;;;;;;;;;4985375;28;98516;-78
2023/09/07 14:11:46;;;;;;;6.07;3.05;;;;;;;;;;5015686;28;97778;-78
2023/09/07 14:14:12;;;;;;;5.43;2.72;;;;;;;;;;4989576;28;100351;-79
2023/09/07 14:16:39;;;;;;;5.85;2.92;;;;;;;;;;4999119;28;99452;-79
2023/09/07 14:19:05;;;;;;;6.50;2.65;;;;;;;;;;4990132;28;99509;-78
2023/09/07 14:21:32;;;;;;;6.22;3.03;;;;;;;;;;5009975;28;99740;-80
2023/09/07 14:23:59;;;;;;;;;;;;;;;;;;5011112;28;99605;-79
2023/09/07 14:26:25;;;;;;;5.88;2.90;;;;;;;;;;5014058;28;100922;-80
2023/09/07 14:28:52;;;;;;;5.55;2.80;;;;;;;;;;4990049;28;100716;-80
2023/09/07 14:31:18;;;;;;;6.25;3.03;;;;;;;;;;5009420;28;98633;-77
2023/09/07 14:33:45;;;;;;;6.35;2.83;;;;;;;;;;5009872;28;99044;-80
2023/09/07 14:36:12;;;;;;;5.50;2.90;;;;;;;;;;5009443;28;98361;-79
2023/09/07 14:38:44;;;;;;;;;;;;;;;;;;4990733;28;98947;-79
2023/09/07 14:41:17;;;;;;;6.43;3.08;;;;;;;;;;5010798;28;98724;-78
2023/09/07 14:43:47;;;;;;;6.18;3.13;;;;;;;;;;4990697;28;100375;-79
2023/09/07 14:46:14;;;;;;;8.45;2.92;;;;;;;;;;5008582;28;99020;-80
2023/09/07 14:48:42;;;;;;;6.55;3.10;;;;;;;;;;5011429;28;99346;-78